Airfield :
LOGIN :

Register | Disclaimer

   EN    FR    IT 

 










Legend :    VFR   Marginal VFR   IFR   Intensive IFR   Very Intensive IFR
Visi :
Ceiling :
>= 8 km
>= 3000ft
5 to 8 km
1000 to 3000 ft
1500m to 5 km
500 to 1000 ft
800 to 1500m
200 to 500 ft
< 800m
< 200 ft
Symbols :   Thunderstorms  Fog  Heavy snow  Heavy precipitations  Wind > 20 kt
SIGMETs :     Misc.  Thunderstorms  Icing  Turbulence  Mountain Waves  Volcanic Ashes






- Airport Elevation : 1521 ft
- IATA code : NCY


LFLP - Annecy

CURRENT METAR :
  • 261130Z AUTO VRB01KT CAVOK 06/M01 Q1031 NOSIG

EXPIRED METARs :
  • 261100Z AUTO 00000KT CAVOK 05/M01 Q1031 NOSIG
  • 261030Z AUTO 00000KT CAVOK 04/M02 Q1032 NOSIG
  • 261000Z AUTO 00000KT CAVOK 02/M02 Q1032 NOSIG
  • 260930Z AUTO 00000KT CAVOK 01/M03 Q1032 NOSIG
  • 260900Z AUTO 00000KT CAVOK M00/M03 Q1032 NOSIG

TAF TAF LFLP
Valid from the 26 at 09:00 until the 27 at 09:00 UTC


260800Z 2609/2709 VRB02KT 8000 NSC
PROB30
TEMPO 2621/2708 3000 BR



MET'MAP, your aeronautical weather chart ! - Copyright ORBIFLY December 2007 - Disclaimer

ORBIFLY MET'MAP TEAM :

Programming & Development : Alexandra Zaïnal
Original concept : Baudouin d'Aumeries
Technical & hardware support : Manuel Goepfert
Assistance : Marc-Olivier Méhu

Contact : metmap@orbifly.com




SOURCES & CREDITS :

   NOAA